Station Historical Data
Daily Summary for July 31, 2017 Units:  English    Metric   Both
« Previous Day
Next Day »
Daily Weekly Monthly Yearly Custom
  High: Low: Average:
Temperature: 82.5 °F 61.2 °F 72.3 °F
Dew Point: 69.2 °F 56.8 °F 64.1 °F
Humidity: 89% 57% 76%
Wind Speed: 11.0mph 0.0mph 2.7mph
Wind Gust: 15.0mph - -
Wind- - WSW
Pressure: 30.10 in 30.03 in -
Precipitation: 0.00 in    
Historical Graphs
 
 
Tabular Data for July 31, 2017
Time Temperature Dew Point Pressure Wind Wind Speed Wind Gust Humidity Rainfall Rate (Hourly)
00:04 69.5 °F 58.9 °F 30.08 in Calm   1.0 mph 69% 0.00 in
00:09 69.5 °F 58.9 °F 30.08 in Calm   1.0 mph 69% 0.00 in
00:14 69.3 °F 58.3 °F 30.08 in Calm     68% 0.00 in
00:19 69.0 °F 58.4 °F 30.08 in Calm     69% 0.00 in
00:24 68.6 °F 58.0 °F 30.08 in Calm     69% 0.00 in
00:29 68.1 °F 57.9 °F 30.08 in Calm     70% 0.00 in
00:34 67.9 °F 57.8 °F 30.08 in Calm     70% 0.00 in
00:39 67.6 °F 57.9 °F 30.08 in Calm     71% 0.00 in
00:44 67.2 °F 57.9 °F 30.08 in Calm     72% 0.00 in
00:49 66.9 °F 58.0 °F 30.09 in Calm     73% 0.00 in
00:54 66.5 °F 58.0 °F 30.09 in Calm     74% 0.00 in
00:59 66.4 °F 57.9 °F 30.09 in Calm     74% 0.00 in
01:04 66.2 °F 58.0 °F 30.09 in Calm     75% 0.00 in
01:09 66.1 °F 57.9 °F 30.09 in Calm     75% 0.00 in
01:14 65.7 °F 57.6 °F 30.08 in Calm     75% 0.00 in
01:19 65.4 °F 57.6 °F 30.08 in Calm     76% 0.00 in
01:24 65.3 °F 57.5 °F 30.08 in Calm     76% 0.00 in
01:29 65.2 °F 57.4 °F 30.08 in Calm     76% 0.00 in
01:34 65.1 °F 57.3 °F 30.08 in Calm     76% 0.00 in
01:39 64.8 °F 57.4 °F 30.08 in Calm     77% 0.00 in
01:44 64.6 °F 57.2 °F 30.08 in Calm     77% 0.00 in
01:49 64.4 °F 57.4 °F 30.08 in Calm     78% 0.00 in
01:54 64.2 °F 57.5 °F 30.08 in Calm     79% 0.00 in
01:59 64.1 °F 57.5 °F 30.08 in Calm     79% 0.00 in
02:04 63.8 °F 57.2 °F 30.08 in Calm     79% 0.00 in
02:09 63.8 °F 57.5 °F 30.08 in Calm     80% 0.00 in
02:14 63.7 °F 57.4 °F 30.08 in Calm     80% 0.00 in
02:19 63.6 °F 57.3 °F 30.08 in Calm     80% 0.00 in
02:24 63.3 °F 57.0 °F 30.08 in Calm     80% 0.00 in
02:29 63.2 °F 57.3 °F 30.08 in Calm     81% 0.00 in
02:34 63.1 °F 57.2 °F 30.08 in Calm     81% 0.00 in
02:39 63.1 °F 57.2 °F 30.08 in Calm     81% 0.00 in
02:44 63.0 °F 57.1 °F 30.08 in Calm     81% 0.00 in
02:49 62.9 °F 57.3 °F 30.08 in Calm     82% 0.00 in
02:54 62.8 °F 57.2 °F 30.08 in Calm     82% 0.00 in
02:59 62.7 °F 57.5 °F 30.08 in Calm     83% 0.00 in
03:04 62.7 °F 57.5 °F 30.08 in Calm     83% 0.00 in
03:09 62.6 °F 57.4 °F 30.08 in Calm     83% 0.00 in
03:14 62.8 °F 57.6 °F 30.08 in Calm     83% 0.00 in
03:19 62.7 °F 57.5 °F 30.08 in Calm     83% 0.00 in
03:24 62.5 °F 57.3 °F 30.08 in Calm     83% 0.00 in
03:29 62.4 °F 57.2 °F 30.08 in Calm     83% 0.00 in
03:34 62.4 °F 57.2 °F 30.08 in Calm     83% 0.00 in
03:39 62.5 °F 57.3 °F 30.08 in Calm     83% 0.00 in
03:44 62.4 °F 57.2 °F 30.08 in Calm     83% 0.00 in
03:49 62.3 °F 57.1 °F 30.07 in Calm     83% 0.00 in
03:54 62.1 °F 57.2 °F 30.08 in Calm     84% 0.00 in
03:59 62.0 °F 57.1 °F 30.08 in Calm     84% 0.00 in
04:04 61.9 °F 57.3 °F 30.08 in Calm     85% 0.00 in
04:09 61.6 °F 57.0 °F 30.08 in Calm     85% 0.00 in
04:14 61.4 °F 56.8 °F 30.08 in Calm     85% 0.00 in
04:19 61.4 °F 57.2 °F 30.08 in Calm     86% 0.00 in
04:24 61.4 °F 57.2 °F 30.08 in Calm     86% 0.00 in
04:29 61.5 °F 57.6 °F 30.08 in Calm     87% 0.00 in
04:34 61.3 °F 57.1 °F 30.08 in Calm     86% 0.00 in
04:39 61.2 °F 57.3 °F 30.08 in Calm     87% 0.00 in
04:44 61.2 °F 57.3 °F 30.08 in Calm     87% 0.00 in
04:49 61.4 °F 57.8 °F 30.08 in Calm     88% 0.00 in
04:54 61.4 °F 57.8 °F 30.08 in Calm     88% 0.00 in
04:59 61.2 °F 57.6 °F 30.08 in Calm     88% 0.00 in
05:04 61.3 °F 57.7 °F 30.08 in Calm     88% 0.00 in
05:09 61.5 °F 58.2 °F 30.09 in Calm     89% 0.00 in
05:14 61.6 °F 58.3 °F 30.08 in Calm     89% 0.00 in
05:19 61.8 °F 58.5 °F 30.08 in Calm     89% 0.00 in
05:24 61.8 °F 58.5 °F 30.08 in Calm     89% 0.00 in
05:29 61.7 °F 58.4 °F 30.08 in Calm     89% 0.00 in
05:34 61.8 °F 58.5 °F 30.08 in Calm     89% 0.00 in
05:39 61.8 °F 58.5 °F 30.08 in Calm     89% 0.00 in
05:44 61.8 °F 58.5 °F 30.09 in Calm     89% 0.00 in
05:49 61.8 °F 58.5 °F 30.09 in Calm     89% 0.00 in
05:54 61.8 °F 58.5 °F 30.09 in Calm     89% 0.00 in
05:59 61.6 °F 58.3 °F 30.09 in Calm     89% 0.00 in
06:04 61.4 °F 58.1 °F 30.09 in Calm     89% 0.00 in
06:09 61.4 °F 58.1 °F 30.09 in Calm     89% 0.00 in
06:14 61.6 °F 58.3 °F 30.09 in Calm     89% 0.00 in
06:19 61.5 °F 58.2 °F 30.09 in Calm     89% 0.00 in
06:24 61.9 °F 58.6 °F 30.09 in Calm     89% 0.00 in
06:29 62.2 °F 58.9 °F 30.09 in Calm     89% 0.00 in
06:34 62.5 °F 59.2 °F 30.09 in Calm     89% 0.00 in
06:39 62.8 °F 59.5 °F 30.09 in Calm     89% 0.00 in
06:44 62.9 °F 59.3 °F 30.09 in Calm     88% 0.00 in
06:49 63.2 °F 59.6 °F 30.09 in Calm     88% 0.00 in
06:54 63.5 °F 59.9 °F 30.09 in Calm     88% 0.00 in
06:59 63.9 °F 60.0 °F 30.09 in Calm     87% 0.00 in
07:04 64.3 °F 60.3 °F 30.09 in Calm     87% 0.00 in
07:09 64.8 °F 60.5 °F 30.09 in Calm     86% 0.00 in
07:14 65.2 °F 60.6 °F 30.09 in Calm     85% 0.00 in
07:19 65.7 °F 61.1 °F 30.09 in Calm     85% 0.00 in
07:24 66.2 °F 61.6 °F 30.09 in SW 1.0 mph 5.0 mph 85% 0.00 in
07:29 66.7 °F 61.7 °F 30.09 in SW 1.0 mph 5.0 mph 84% 0.00 in
07:34 67.2 °F 62.2 °F 30.09 in SW 1.0 mph 4.0 mph 84% 0.00 in
07:39 67.7 °F 62.7 °F 30.09 in SW 1.0 mph 4.0 mph 84% 0.00 in
07:44 68.2 °F 62.8 °F 30.09 in SW 2.0 mph 5.0 mph 83% 0.00 in
07:49 68.7 °F 63.3 °F 30.09 in SSW 1.0 mph 4.0 mph 83% 0.00 in
07:54 69.1 °F 63.4 °F 30.10 in SW 1.0 mph 5.0 mph 82% 0.00 in
07:59 69.6 °F 63.9 °F 30.10 in WSW 3.0 mph 6.0 mph 82% 0.00 in
08:04 70.2 °F 64.4 °F 30.09 in WSW 2.0 mph 4.0 mph 82% 0.00 in
08:09 70.7 °F 64.6 °F 30.10 in SSW 2.0 mph 6.0 mph 81% 0.00 in
08:14 71.0 °F 64.9 °F 30.10 in SSW 1.0 mph 7.0 mph 81% 0.00 in
08:19 71.4 °F 64.9 °F 30.10 in SW 3.0 mph 7.0 mph 80% 0.00 in
08:24 71.6 °F 64.7 °F 30.09 in SW 3.0 mph 7.0 mph 79% 0.00 in
08:29 71.7 °F 64.8 °F 30.09 in SW 4.0 mph 8.0 mph 79% 0.00 in
08:34 71.9 °F 65.0 °F 30.09 in SW 4.0 mph 8.0 mph 79% 0.00 in
08:39 72.2 °F 65.3 °F 30.09 in SW 4.0 mph 8.0 mph 79% 0.00 in
08:44 72.5 °F 65.6 °F 30.09 in SW 4.0 mph 10.0 mph 79% 0.00 in
08:49 72.7 °F 65.8 °F 30.09 in SW 4.0 mph 10.0 mph 79% 0.00 in
08:54 72.9 °F 66.0 °F 30.09 in WSW 2.0 mph 7.0 mph 79% 0.00 in
08:59 73.1 °F 65.8 °F 30.10 in WSW 3.0 mph 9.0 mph 78% 0.00 in
09:04 73.6 °F 66.3 °F 30.09 in WSW 5.0 mph 9.0 mph 78% 0.00 in
09:09 73.9 °F 66.2 °F 30.09 in WSW 3.0 mph 9.0 mph 77% 0.00 in
09:14 74.0 °F 66.3 °F 30.09 in WSW 5.0 mph 10.0 mph 77% 0.00 in
09:19 74.0 °F 66.0 °F 30.10 in WSW 5.0 mph 10.0 mph 76% 0.00 in
09:24 74.5 °F 66.1 °F 30.09 in WSW 5.0 mph 10.0 mph 75% 0.00 in
09:29 74.5 °F 66.4 °F 30.09 in SW 5.0 mph 9.0 mph 76% 0.00 in
09:34 74.9 °F 66.4 °F 30.10 in WSW 5.0 mph 11.0 mph 75% 0.00 in
09:39 75.5 °F 67.0 °F 30.10 in WSW 5.0 mph 11.0 mph 75% 0.00 in
09:44 75.9 °F 66.6 °F 30.09 in WSW 4.0 mph 10.0 mph 73% 0.00 in
09:49 75.6 °F 67.1 °F 30.09 in SW 11.0 mph 11.0 mph 75% 0.00 in
09:54 75.6 °F 67.1 °F 30.10 in West 4.0 mph 13.0 mph 75% 0.00 in
09:59 76.0 °F 67.5 °F 30.10 in WSW 6.0 mph 11.0 mph 75% 0.00 in
10:04 76.2 °F 67.3 °F 30.10 in WSW 8.0 mph 9.0 mph 74% 0.00 in
10:09 76.5 °F 67.2 °F 30.10 in West 8.0 mph 10.0 mph 73% 0.00 in
10:14 76.6 °F 66.5 °F 30.10 in WSW 5.0 mph 10.0 mph 71% 0.00 in
10:19 76.8 °F 67.1 °F 30.10 in WSW 5.0 mph 10.0 mph 72% 0.00 in
10:24 77.3 °F 67.2 °F 30.10 in WSW 5.0 mph 10.0 mph 71% 0.00 in
10:29 77.5 °F 67.4 °F 30.10 in SW 6.0 mph 12.0 mph 71% 0.00 in
10:34 77.3 °F 68.0 °F 30.10 in WSW 4.0 mph 8.0 mph 73% 0.00 in
10:39 77.5 °F 67.4 °F 30.10 in SW 3.0 mph 8.0 mph 71% 0.00 in
10:44 77.5 °F 67.8 °F 30.10 in WSW 5.0 mph 11.0 mph 72% 0.00 in
10:49 77.3 °F 68.4 °F 30.09 in SW 5.0 mph 11.0 mph 74% 0.00 in
10:54 77.7 °F 68.7 °F 30.09 in SW 5.0 mph 11.0 mph 74% 0.00 in
10:59 77.6 °F 68.3 °F 30.09 in SW 6.0 mph 14.0 mph 73% 0.00 in
11:04 77.7 °F 68.7 °F 30.09 in WSW 6.0 mph 13.0 mph 74% 0.00 in
11:09 78.1 °F 68.7 °F 30.09 in South 6.0 mph 10.0 mph 73% 0.00 in
11:14 78.4 °F 68.6 °F 30.09 in SW 5.0 mph 12.0 mph 72% 0.00 in
11:19 78.2 °F 69.2 °F 30.09 in SW 7.0 mph 13.0 mph 74% 0.00 in
11:24 78.1 °F 68.7 °F 30.09 in West 3.0 mph 10.0 mph 73% 0.00 in
11:29 78.4 °F 68.2 °F 30.09 in West 9.0 mph 11.0 mph 71% 0.00 in
11:34 78.9 °F 68.7 °F 30.09 in SW 6.0 mph 13.0 mph 71% 0.00 in
11:39 78.7 °F 68.5 °F 30.10 in West 4.0 mph 10.0 mph 71% 0.00 in
11:44 78.8 °F 68.2 °F 30.09 in SW 6.0 mph 12.0 mph 70% 0.00 in
11:49 79.0 °F 67.5 °F 30.09 in SW 6.0 mph 13.0 mph 68% 0.00 in
11:54 78.9 °F 65.7 °F 30.09 in WSW 6.0 mph 13.0 mph 64% 0.00 in
11:59 79.3 °F 66.5 °F 30.09 in WSW 6.0 mph 11.0 mph 65% 0.00 in
12:04 79.9 °F 67.1 °F 30.09 in WSW 6.0 mph 11.0 mph 65% 0.00 in
12:09 79.9 °F 66.6 °F 30.09 in West 4.0 mph 10.0 mph 64% 0.00 in
12:14 80.5 °F 66.7 °F 30.09 in West 7.0 mph 10.0 mph 63% 0.00 in
12:19 80.1 °F 66.8 °F 30.09 in WSW 6.0 mph 11.0 mph 64% 0.00 in
12:24 80.3 °F 67.0 °F 30.09 in SW 6.0 mph 11.0 mph 64% 0.00 in
12:29 80.4 °F 67.1 °F 30.09 in SSW 5.0 mph 10.0 mph 64% 0.00 in
12:34 81.1 °F 69.1 °F 30.09 in WSW 2.0 mph 10.0 mph 67% 0.00 in
12:39 80.5 °F 67.6 °F 30.09 in WSW 7.0 mph 15.0 mph 65% 0.00 in
12:44 80.0 °F 66.7 °F 30.08 in SW 6.0 mph 15.0 mph 64% 0.00 in
12:49 80.2 °F 66.0 °F 30.09 in WSW 6.0 mph 11.0 mph 62% 0.00 in
12:54 80.3 °F 67.0 °F 30.08 in WSW 6.0 mph 13.0 mph 64% 0.00 in
12:59 80.6 °F 67.3 °F 30.08 in WSW 6.0 mph 13.0 mph 64% 0.00 in
13:04 79.9 °F 66.2 °F 30.08 in SW 6.0 mph 11.0 mph 63% 0.00 in
13:09 79.7 °F 66.0 °F 30.08 in South 4.0 mph 12.0 mph 63% 0.00 in
13:14 80.0 °F 66.7 °F 30.08 in SW 7.0 mph 12.0 mph 64% 0.00 in
13:19 80.0 °F 66.3 °F 30.08 in WSW 6.0 mph 13.0 mph 63% 0.00 in
13:24 80.6 °F 67.3 °F 30.08 in WSW 8.0 mph 11.0 mph 64% 0.00 in
13:29 80.9 °F 67.6 °F 30.08 in WSW 4.0 mph 12.0 mph 64% 0.00 in
13:34 80.7 °F 66.9 °F 30.08 in SW 9.0 mph 11.0 mph 63% 0.00 in
13:39 80.0 °F 65.8 °F 30.08 in WSW 8.0 mph 12.0 mph 62% 0.00 in
13:44 80.5 °F 67.6 °F 30.08 in SW 7.0 mph 13.0 mph 65% 0.00 in
13:49 80.5 °F 66.3 °F 30.08 in WSW 6.0 mph 14.0 mph 62% 0.00 in
13:54 80.4 °F 66.6 °F 30.08 in WSW 7.0 mph 14.0 mph 63% 0.00 in
13:59 81.2 °F 66.9 °F 30.07 in WSW 6.0 mph 13.0 mph 62% 0.00 in
14:04 80.9 °F 66.7 °F 30.07 in WSW 6.0 mph 11.0 mph 62% 0.00 in
14:09 80.9 °F 66.2 °F 30.07 in West 5.0 mph 14.0 mph 61% 0.00 in
14:14 80.8 °F 67.0 °F 30.07 in SSW 7.0 mph 11.0 mph 63% 0.00 in
14:19 80.7 °F 66.9 °F 30.07 in West 6.0 mph 13.0 mph 63% 0.00 in
14:24 81.3 °F 67.0 °F 30.07 in NW 6.0 mph 13.0 mph 62% 0.00 in
14:29 81.0 °F 65.3 °F 30.07 in SSW 3.0 mph 12.0 mph 59% 0.00 in
14:34 80.8 °F 66.6 °F 30.07 in WSW 6.0 mph 12.0 mph 62% 0.00 in
14:39 81.4 °F 66.2 °F 30.07 in WSW 6.0 mph 12.0 mph 60% 0.00 in
14:44 80.9 °F 65.7 °F 30.07 in WSW 7.0 mph 13.0 mph 60% 0.00 in
14:49 81.3 °F 66.1 °F 30.07 in SW 10.0 mph 11.0 mph 60% 0.00 in
14:54 81.0 °F 66.3 °F 30.06 in West 9.0 mph 13.0 mph 61% 0.00 in
14:59 81.0 °F 65.8 °F 30.06 in SW 9.0 mph 13.0 mph 60% 0.00 in
15:04 81.4 °F 65.7 °F 30.06 in WSW 7.0 mph 13.0 mph 59% 0.00 in
15:09 81.2 °F 65.5 °F 30.06 in WSW 7.0 mph 14.0 mph 59% 0.00 in
15:14 81.6 °F 66.4 °F 30.06 in WSW 7.0 mph 14.0 mph 60% 0.00 in
15:19 82.0 °F 65.3 °F 30.06 in WSW 6.0 mph 13.0 mph 57% 0.00 in
15:24 81.4 °F 65.2 °F 30.06 in WSW 7.0 mph 15.0 mph 58% 0.00 in
15:29 81.3 °F 66.1 °F 30.06 in SW 5.0 mph 14.0 mph 60% 0.00 in
15:34 82.5 °F 66.2 °F 30.06 in West 5.0 mph 10.0 mph 58% 0.00 in
15:39 82.3 °F 66.5 °F 30.06 in WSW 7.0 mph 11.0 mph 59% 0.00 in
15:44 81.9 °F 66.6 °F 30.06 in SSE 5.0 mph 13.0 mph 60% 0.00 in
15:49 81.5 °F 66.8 °F 30.06 in West 3.0 mph 13.0 mph 61% 0.00 in
15:54 81.6 °F 66.8 °F 30.06 in West 8.0 mph 10.0 mph 61% 0.00 in
15:59 81.5 °F 66.3 °F 30.05 in SW 3.0 mph 11.0 mph 60% 0.00 in
16:04 81.5 °F 66.8 °F 30.06 in WSW 6.0 mph 15.0 mph 61% 0.00 in
16:09 81.0 °F 67.2 °F 30.06 in WSW 6.0 mph 15.0 mph 63% 0.00 in
16:14 80.5 °F 66.7 °F 30.05 in WSW 6.0 mph 12.0 mph 63% 0.00 in
16:19 81.4 °F 68.1 °F 30.05 in WSW 6.0 mph 12.0 mph 64% 0.00 in
16:24 81.4 °F 67.1 °F 30.06 in WSW 5.0 mph 11.0 mph 62% 0.00 in
16:29 81.2 °F 66.9 °F 30.05 in WSW 9.0 mph 11.0 mph 62% 0.00 in
16:34 80.0 °F 65.8 °F 30.06 in WSW 6.0 mph 13.0 mph 62% 0.00 in
16:39 79.0 °F 65.8 °F 30.06 in West 3.0 mph 13.0 mph 64% 0.00 in
16:44 78.5 °F 65.8 °F 30.06 in WSW 6.0 mph 12.0 mph 65% 0.00 in
16:49 78.1 °F 66.2 °F 30.06 in WSW 5.0 mph 11.0 mph 67% 0.00 in
16:54 77.7 °F 66.7 °F 30.06 in SW 3.0 mph 8.0 mph 69% 0.00 in
16:59 77.6 °F 67.0 °F 30.05 in WSW 4.0 mph 8.0 mph 70% 0.00 in
17:04 77.3 °F 66.7 °F 30.05 in WSW 4.0 mph 8.0 mph 70% 0.00 in
17:09 76.8 °F 66.7 °F 30.05 in SW 5.0 mph 10.0 mph 71% 0.00 in
17:14 76.6 °F 66.9 °F 30.04 in SW 5.0 mph 11.0 mph 72% 0.00 in
17:19 76.6 °F 66.9 °F 30.05 in WSW 1.0 mph 12.0 mph 72% 0.00 in
17:24 76.7 °F 66.6 °F 30.05 in WSW 6.0 mph 10.0 mph 71% 0.00 in
17:29 76.7 °F 67.0 °F 30.06 in WSW 4.0 mph 8.0 mph 72% 0.00 in
17:34 76.7 °F 66.6 °F 30.06 in West 4.0 mph 7.0 mph 71% 0.00 in
17:39 76.8 °F 67.1 °F 30.06 in WSW 5.0 mph 8.0 mph 72% 0.00 in
17:44 76.4 °F 67.1 °F 30.06 in West 3.0 mph 8.0 mph 73% 0.00 in
17:49 76.4 °F 67.5 °F 30.06 in West 2.0 mph 7.0 mph 74% 0.00 in
17:54 76.2 °F 67.3 °F 30.05 in WSW 1.0 mph 7.0 mph 74% 0.00 in
17:59 76.2 °F 67.3 °F 30.05 in WSW 3.0 mph 7.0 mph 74% 0.00 in
18:04 76.4 °F 67.5 °F 30.05 in WSW 2.0 mph 6.0 mph 74% 0.00 in
18:09 76.2 °F 68.5 °F 30.05 in SW 2.0 mph 4.0 mph 77% 0.00 in
18:14 75.7 °F 68.7 °F 30.05 in WSW 1.0 mph 3.0 mph 79% 0.00 in
18:19 75.5 °F 68.5 °F 30.05 in Calm   4.0 mph 79% 0.01 in
18:24 75.2 °F 68.2 °F 30.05 in SW 2.0 mph 3.0 mph 79% 0.01 in
18:29 75.1 °F 68.5 °F 30.05 in SW 2.0 mph 5.0 mph 80% 0.01 in
18:34 74.9 °F 68.3 °F 30.05 in SW 3.0 mph 7.0 mph 80% 0.01 in
18:39 74.6 °F 67.7 °F 30.05 in WSW 1.0 mph 7.0 mph 79% 0.01 in
18:44 74.5 °F 67.9 °F 30.05 in SW 2.0 mph 8.0 mph 80% 0.01 in
18:49 74.5 °F 67.9 °F 30.04 in SW 2.0 mph 6.0 mph 80% 0.01 in
18:54 74.5 °F 68.3 °F 30.05 in Calm   6.0 mph 81% 0.01 in
18:59 74.5 °F 68.3 °F 30.05 in SW 3.0 mph 6.0 mph 81% 0.01 in
19:04 74.5 °F 68.3 °F 30.04 in WSW 3.0 mph 8.0 mph 81% 0.01 in
19:09 74.7 °F 68.5 °F 30.04 in SW 3.0 mph 8.0 mph 81% 0.01 in
19:14 75.0 °F 68.4 °F 30.04 in SW 3.0 mph 8.0 mph 80% 0.01 in
19:19 75.4 °F 68.8 °F 30.04 in SSW 4.0 mph 7.0 mph 80% 0.00 in
19:24 75.4 °F 68.4 °F 30.04 in SW 4.0 mph 8.0 mph 79% 0.00 in
19:29 75.5 °F 68.5 °F 30.04 in SW 4.0 mph 8.0 mph 79% 0.00 in
19:34 75.6 °F 68.3 °F 30.04 in SW 4.0 mph 9.0 mph 78% 0.00 in
19:39 75.6 °F 68.3 °F 30.04 in SW 4.0 mph 10.0 mph 78% 0.00 in
19:44 75.6 °F 68.3 °F 30.04 in SW 4.0 mph 10.0 mph 78% 0.00 in
19:49 75.4 °F 68.1 °F 30.03 in SSW 3.0 mph 11.0 mph 78% 0.00 in
19:54 75.2 °F 68.2 °F 30.04 in SW 6.0 mph 13.0 mph 79% 0.00 in
19:59 75.0 °F 68.0 °F 30.03 in SSW 4.0 mph 7.0 mph 79% 0.00 in
20:04 75.0 °F 68.0 °F 30.04 in West 3.0 mph 9.0 mph 79% 0.00 in
20:09 74.9 °F 67.6 °F 30.04 in SW 6.0 mph 8.0 mph 78% 0.00 in
20:14 74.8 °F 67.5 °F 30.04 in SW 2.0 mph 8.0 mph 78% 0.00 in
20:19 74.7 °F 67.8 °F 30.04 in WSW 2.0 mph 6.0 mph 79% 0.00 in
20:24 74.6 °F 67.7 °F 30.05 in SW 3.0 mph 8.0 mph 79% 0.00 in
20:29 74.4 °F 67.5 °F 30.05 in WSW 4.0 mph 9.0 mph 79% 0.00 in
20:34 74.2 °F 67.3 °F 30.05 in WSW 4.0 mph 9.0 mph 79% 0.00 in
20:39 74.1 °F 67.2 °F 30.05 in WSW 3.0 mph 6.0 mph 79% 0.00 in
20:44 73.9 °F 67.0 °F 30.04 in South 2.0 mph 6.0 mph 79% 0.00 in
20:49 73.8 °F 66.9 °F 30.04 in SW 2.0 mph 7.0 mph 79% 0.00 in
20:54 73.6 °F 67.0 °F 30.05 in SSW 2.0 mph 6.0 mph 80% 0.00 in
20:59 73.4 °F 66.5 °F 30.05 in Calm   4.0 mph 79% 0.00 in
21:04 73.4 °F 66.9 °F 30.05 in Calm   4.0 mph 80% 0.00 in
21:09 73.3 °F 66.8 °F 30.05 in SW 1.0 mph 5.0 mph 80% 0.00 in
21:14 73.1 °F 66.6 °F 30.05 in Calm   5.0 mph 80% 0.00 in
21:19 73.0 °F 66.5 °F 30.06 in WSW 2.0 mph 5.0 mph 80% 0.00 in
21:24 72.9 °F 66.4 °F 30.06 in WSW 2.0 mph 5.0 mph 80% 0.00 in
21:29 72.9 °F 66.0 °F 30.06 in SW 1.0 mph 5.0 mph 79% 0.00 in
21:34 72.8 °F 65.9 °F 30.06 in SW 1.0 mph 3.0 mph 79% 0.00 in
21:39 72.7 °F 66.2 °F 30.06 in SW 1.0 mph 5.0 mph 80% 0.00 in
21:44 72.6 °F 66.1 °F 30.06 in SW 1.0 mph 5.0 mph 80% 0.00 in
21:49 72.6 °F 66.1 °F 30.06 in Calm     80% 0.00 in
21:54 72.6 °F 66.4 °F 30.06 in Calm     81% 0.00 in
21:59 72.4 °F 66.2 °F 30.06 in Calm     81% 0.00 in
22:04 72.3 °F 66.5 °F 30.06 in WSW 1.0 mph 3.0 mph 82% 0.00 in
22:09 72.4 °F 66.9 °F 30.06 in WSW 1.0 mph 4.0 mph 83% 0.00 in
22:14 72.4 °F 66.9 °F 30.06 in Calm   3.0 mph 83% 0.00 in
22:19 72.2 °F 67.1 °F 30.06 in Calm   3.0 mph 84% 0.00 in
22:24 72.3 °F 67.5 °F 30.06 in SSW 1.0 mph 4.0 mph 85% 0.00 in
22:29 72.2 °F 67.4 °F 30.06 in SSW 1.0 mph 4.0 mph 85% 0.00 in
22:34 72.2 °F 67.4 °F 30.06 in SW 1.0 mph 5.0 mph 85% 0.00 in
22:39 72.3 °F 67.5 °F 30.06 in SW 2.0 mph 5.0 mph 85% 0.00 in
22:44 72.3 °F 67.2 °F 30.06 in SW 2.0 mph 6.0 mph 84% 0.00 in
22:49 72.4 °F 67.3 °F 30.06 in SW 1.0 mph 5.0 mph 84% 0.00 in
22:54 72.4 °F 66.9 °F 30.05 in SW 3.0 mph 6.0 mph 83% 0.00 in
22:59 72.5 °F 67.0 °F 30.05 in WSW 1.0 mph 4.0 mph 83% 0.00 in
23:04 72.4 °F 66.9 °F 30.05 in West 2.0 mph 3.0 mph 83% 0.00 in
23:09 72.4 °F 67.3 °F 30.05 in WSW 1.0 mph 4.0 mph 84% 0.00 in
23:14 72.3 °F 67.2 °F 30.05 in WSW 1.0 mph 4.0 mph 84% 0.00 in
23:19 72.2 °F 67.1 °F 30.05 in WSW 1.0 mph 4.0 mph 84% 0.00 in
23:24 72.1 °F 67.0 °F 30.05 in WSW 1.0 mph 3.0 mph 84% 0.00 in
23:29 72.0 °F 66.9 °F 30.05 in Calm   3.0 mph 84% 0.00 in
23:34 71.8 °F 66.7 °F 30.05 in Calm   1.0 mph 84% 0.00 in
23:39 71.5 °F 66.8 °F 30.05 in Calm     85% 0.00 in
23:44 71.2 °F 66.5 °F 30.05 in Calm     85% 0.00 in
23:49 71.0 °F 66.3 °F 30.05 in Calm     85% 0.00 in
23:54 70.8 °F 66.4 °F 30.04 in Calm     86% 0.00 in
23:59 70.6 °F 66.2 °F 30.04 in Calm     86% 0.00 in
Buffalo, New York, USA
Compliments of Weather Underground - 2.5 mb